Corbin, Kentucky
Current Conditions -  °F | °C
As of 9:53 PM on Wednesday 22 Oct 2014 (Local Time) from KLOZ Reporting Station
Overcast Overcast  
Wind Chill: 47°   Ceiling: 3300
Heat Index: 49°   Visibility: 10mi
Dew Point: 41°   Wind: 5mph
Humidity: 74%   Direction: 340°NNW
Pressure: 30.25"   Gusts: NA
Location:  36.94°N, 84.09°W
Report Text: KLOZ 230153Z AUTO 34004KT 10SM OVC033 09/05 A3025 RMK AO2 SLP243 T00940050
Loading
Personal Weather Stations






























Interactive Weather Map
Tropical Storm Tracking
New forecast layout! Learn more

10-Day Weather Forecast

Advertisements
Track Severe Weather on mobile